createdAt,value
2023-05-02T00:01:50.324Z,46.63
2023-05-02T00:04:17.490Z,44.38
2023-05-02T00:06:46.783Z,43.40
2023-05-02T00:09:15.763Z,42.45
2023-05-02T00:11:42.868Z,39.55
2023-05-02T00:14:10.000Z,43.10
2023-05-02T00:16:37.133Z,40.22
2023-05-02T00:19:04.315Z,40.75
2023-05-02T00:21:31.505Z,45.33
2023-05-02T00:23:58.844Z,42.35
2023-05-02T00:26:26.976Z,43.42
2023-05-02T00:28:54.064Z,40.25
2023-05-02T00:31:21.100Z,43.85
2023-05-02T00:33:48.109Z,40.70
2023-05-02T00:36:16.556Z,43.95
2023-05-02T00:38:43.866Z,42.72
2023-05-02T00:41:11.087Z,38.88
2023-05-02T00:43:41.436Z,47.90
2023-05-02T00:46:08.835Z,43.20
2023-05-02T00:48:36.704Z,43.97
2023-05-02T00:51:09.138Z,47.95
2023-05-02T00:53:36.814Z,47.03
2023-05-02T00:56:04.124Z,48.00
2023-05-02T00:58:31.428Z,51.53
2023-05-02T01:01:19.657Z,47.13
2023-05-02T01:04:17.453Z,50.08
2023-05-02T01:07:17.928Z,49.45
2023-05-02T01:10:16.765Z,48.30
2023-05-02T01:12:47.632Z,54.40
2023-05-02T01:15:20.767Z,53.22
2023-05-02T01:17:49.858Z,56.05
2023-05-02T01:20:23.771Z,61.50
2023-05-02T01:22:51.653Z,54.92
2023-05-02T01:25:41.739Z,61.97
2023-05-02T01:28:14.429Z,55.05
2023-05-02T01:30:44.865Z,62.72
2023-05-02T01:33:15.139Z,61.65
2023-05-02T01:35:45.016Z,61.00
2023-05-02T01:38:16.848Z,62.20
2023-05-02T01:40:47.002Z,63.75
2023-05-02T01:43:15.910Z,62.83
2023-05-02T01:45:47.414Z,61.00
2023-05-02T01:48:16.443Z,60.50
2023-05-02T01:50:45.851Z,70.50
2023-05-02T01:53:15.407Z,71.43
2023-05-02T01:55:46.036Z,69.63
2023-05-02T01:58:14.873Z,62.60
2023-05-02T02:00:45.341Z,67.25
2023-05-02T02:03:13.330Z,72.00
2023-05-02T02:05:41.874Z,62.45
2023-05-02T02:08:09.305Z,63.10
2023-05-02T02:10:41.231Z,68.63
2023-05-02T02:13:18.256Z,72.30
2023-05-02T02:15:49.321Z,70.10
2023-05-02T02:18:22.358Z,72.07
2023-05-02T02:20:51.407Z,75.40
2023-05-02T02:23:21.153Z,75.03
2023-05-02T02:25:49.594Z,78.50
2023-05-02T02:28:16.661Z,85.68
2023-05-02T02:30:44.195Z,80.88
2023-05-02T02:33:11.299Z,84.35
2023-05-02T02:35:42.869Z,86.10
2023-05-02T02:38:16.215Z,89.05
2023-05-02T02:40:53.344Z,80.80
2023-05-02T02:43:29.375Z,85.65
2023-05-02T02:46:50.392Z,89.00
2023-05-02T02:49:35.111Z,92.63
2023-05-02T02:52:17.880Z,85.00
2023-05-02T02:54:52.699Z,100.93
2023-05-02T02:57:29.146Z,102.65
2023-05-02T02:59:56.126Z,99.18
2023-05-02T03:02:29.572Z,103.90
2023-05-02T03:04:57.953Z,105.13
2023-05-02T03:07:28.915Z,106.85
2023-05-02T03:09:56.077Z,99.97
2023-05-02T03:12:23.247Z,104.45
2023-05-02T03:14:51.155Z,97.60
2023-05-02T03:17:18.684Z,111.72
2023-05-02T03:19:46.004Z,100.78
2023-05-02T03:22:13.062Z,95.55
2023-05-02T03:24:40.087Z,96.75
2023-05-02T03:27:07.335Z,99.82
2023-05-02T03:29:34.381Z,91.68
2023-05-02T03:32:01.454Z,93.93
2023-05-02T03:34:28.852Z,82.43
2023-05-02T03:36:55.957Z,85.25
2023-05-02T03:39:22.976Z,84.82
2023-05-02T03:41:50.097Z,83.65
2023-05-02T03:44:17.266Z,86.35
2023-05-02T03:46:44.544Z,85.80
2023-05-02T03:49:12.218Z,89.10
2023-05-02T03:51:39.452Z,82.32
2023-05-02T03:54:07.649Z,76.55
2023-05-02T03:56:34.700Z,65.53
2023-05-02T03:59:01.808Z,78.38
2023-05-02T04:01:29.111Z,69.18
2023-05-02T04:03:56.170Z,71.72
2023-05-02T04:06:23.405Z,69.75
2023-05-02T04:08:50.442Z,73.60
2023-05-02T04:11:17.474Z,76.72
2023-05-02T04:13:44.509Z,71.07
2023-05-02T04:16:11.549Z,75.85
2023-05-02T04:18:38.696Z,73.32
2023-05-02T04:21:10.017Z,74.40
2023-05-02T04:23:37.136Z,73.68
2023-05-02T04:26:04.205Z,79.07
2023-05-02T04:28:31.339Z,74.20
2023-05-02T04:30:58.525Z,69.60
2023-05-02T04:33:25.880Z,71.57
2023-05-02T04:35:54.481Z,78.38
2023-05-02T04:38:21.750Z,73.40
2023-05-02T04:40:52.458Z,69.20
2023-05-02T04:43:19.520Z,73.43
2023-05-02T04:45:46.704Z,79.68
2023-05-02T04:48:14.198Z,76.07
2023-05-02T04:50:41.272Z,73.47
2023-05-02T04:53:08.367Z,67.82
2023-05-02T04:55:35.425Z,72.40
2023-05-02T04:58:02.581Z,71.03
2023-05-02T05:00:29.640Z,67.13
2023-05-02T05:02:59.137Z,69.90
2023-05-02T05:05:27.255Z,63.47
2023-05-02T05:07:54.408Z,62.28
2023-05-02T05:10:21.422Z,61.90
2023-05-02T05:12:49.555Z,59.47
2023-05-02T05:15:17.060Z,56.13
2023-05-02T05:17:44.484Z,58.70
2023-05-02T05:20:11.728Z,64.10
2023-05-02T05:22:39.758Z,55.10
2023-05-02T05:25:07.512Z,53.42
2023-05-02T05:27:35.418Z,56.40
2023-05-02T05:30:03.697Z,51.58
2023-05-02T05:32:30.948Z,58.60
2023-05-02T05:34:58.130Z,57.65
2023-05-02T05:37:25.313Z,62.03
2023-05-02T05:39:52.452Z,63.92
2023-05-02T05:42:19.502Z,61.92
2023-05-02T05:44:46.534Z,60.63
2023-05-02T05:47:18.973Z,62.47
2023-05-02T05:49:46.614Z,62.90
2023-05-02T05:52:13.599Z,60.05
2023-05-02T05:54:40.832Z,67.13
2023-05-02T05:57:07.850Z,66.55
2023-05-02T05:59:36.546Z,64.03
2023-05-02T06:02:05.090Z,64.95
2023-05-02T06:04:33.096Z,66.82
2023-05-02T06:07:00.402Z,65.95
2023-05-02T06:09:27.470Z,65.97
2023-05-02T06:11:55.420Z,62.20
2023-05-02T06:14:22.612Z,62.25
2023-05-02T06:16:49.662Z,55.90
2023-05-02T06:19:16.722Z,56.95
2023-05-02T06:21:43.770Z,55.33
2023-05-02T06:24:10.949Z,56.22
2023-05-02T06:26:37.980Z,55.15
2023-05-02T06:29:05.070Z,58.55
2023-05-02T06:31:32.113Z,49.63
2023-05-02T06:33:59.204Z,48.90
2023-05-02T06:36:26.212Z,51.53
2023-05-02T06:38:53.258Z,52.10
2023-05-02T06:41:20.927Z,52.20
2023-05-02T06:43:48.080Z,54.83
2023-05-02T06:46:15.429Z,51.40
2023-05-02T06:48:42.519Z,49.88
2023-05-02T06:51:09.568Z,43.95
2023-05-02T06:53:36.624Z,44.40
2023-05-02T06:56:03.843Z,47.35
2023-05-02T06:58:31.062Z,44.45
2023-05-02T07:00:58.226Z,46.08
2023-05-02T07:03:25.331Z,49.22
2023-05-02T07:05:52.310Z,49.20
2023-05-02T07:08:21.626Z,54.30
2023-05-02T07:10:48.691Z,45.75
2023-05-02T07:13:15.862Z,46.35
2023-05-02T07:15:43.521Z,49.33
2023-05-02T07:18:11.502Z,46.53
2023-05-02T07:20:39.145Z,47.22
2023-05-02T07:23:06.240Z,53.15
2023-05-02T07:25:33.366Z,40.30
2023-05-02T07:28:00.475Z,41.47
2023-05-02T07:30:27.503Z,39.17
2023-05-02T07:32:54.563Z,39.08
2023-05-02T07:35:21.823Z,45.22
2023-05-02T07:37:49.050Z,36.60
2023-05-02T07:40:16.214Z,40.72
2023-05-02T07:42:44.418Z,37.47
2023-05-02T07:45:11.718Z,38.00
2023-05-02T07:47:38.853Z,44.05
2023-05-02T07:50:07.003Z,42.28
2023-05-02T07:52:34.165Z,39.47
2023-05-02T07:55:01.171Z,36.55
2023-05-02T07:57:28.248Z,40.08
2023-05-02T07:59:57.470Z,38.47
2023-05-02T08:02:25.130Z,30.08
2023-05-02T08:04:52.611Z,28.75
2023-05-02T08:07:19.747Z,24.35
2023-05-02T08:09:46.876Z,22.10
2023-05-02T08:12:13.882Z,18.02
2023-05-02T08:14:40.974Z,14.35
2023-05-02T08:17:08.012Z,14.68
2023-05-02T08:19:35.170Z,13.85
2023-05-02T08:22:02.301Z,12.90
2023-05-02T08:24:31.063Z,11.40
2023-05-02T08:26:58.163Z,8.90
2023-05-02T08:29:25.323Z,12.10
2023-05-02T08:31:52.423Z,11.20
2023-05-02T08:34:19.586Z,13.75
2023-05-02T08:36:47.594Z,11.50
2023-05-02T08:39:14.707Z,10.50
2023-05-02T08:41:41.938Z,11.20
2023-05-02T08:44:09.125Z,11.77
2023-05-02T08:46:38.455Z,9.70
2023-05-02T08:49:06.852Z,9.75
2023-05-02T08:51:36.301Z,14.88
2023-05-02T08:54:04.433Z,12.27
2023-05-02T08:56:32.829Z,15.88
2023-05-02T08:58:59.853Z,13.55
2023-05-02T09:01:31.259Z,20.73
2023-05-02T09:03:59.811Z,15.32
2023-05-02T09:06:30.289Z,18.98
2023-05-02T09:09:00.712Z,16.85
2023-05-02T09:11:27.941Z,16.83
2023-05-02T09:13:56.205Z,14.75
2023-05-02T09:16:25.889Z,13.55
2023-05-02T09:18:56.018Z,18.17
2023-05-02T09:21:25.599Z,14.70
2023-05-02T09:23:56.608Z,12.18
2023-05-02T09:26:37.515Z,13.20
2023-05-02T09:29:05.590Z,15.80
2023-05-02T09:31:54.789Z,15.43
2023-05-02T09:34:23.157Z,14.50
2023-05-02T09:36:54.063Z,15.65
2023-05-02T09:39:25.587Z,11.88
2023-05-02T09:41:53.480Z,16.05
2023-05-02T09:44:23.195Z,13.25
2023-05-02T09:46:55.235Z,22.23
2023-05-02T09:49:42.725Z,24.38
2023-05-02T09:52:14.723Z,24.67
2023-05-02T09:54:42.266Z,22.60
2023-05-02T09:57:11.218Z,26.00
2023-05-02T09:59:39.991Z,20.08
2023-05-02T10:02:09.805Z,18.20
2023-05-02T10:04:37.777Z,14.25
2023-05-02T10:07:06.754Z,12.85
2023-05-02T10:09:37.241Z,13.48
2023-05-02T10:12:05.351Z,10.43
2023-05-02T10:14:39.719Z,9.65
2023-05-02T10:17:16.219Z,9.13
2023-05-02T10:19:53.052Z,10.50
2023-05-02T10:22:21.326Z,9.80
2023-05-02T10:24:52.683Z,5.43
2023-05-02T10:27:20.052Z,5.65
2023-05-02T10:29:47.787Z,7.53
2023-05-02T10:32:18.265Z,5.93
2023-05-02T10:34:47.876Z,5.03
2023-05-02T10:37:16.323Z,6.18
2023-05-02T10:39:43.519Z,5.35
2023-05-02T10:42:11.103Z,6.47
2023-05-02T10:44:40.181Z,10.40
2023-05-02T10:47:27.892Z,8.07
2023-05-02T10:50:03.148Z,5.85
2023-05-02T10:52:41.609Z,10.98
2023-05-02T10:55:19.530Z,7.93
2023-05-02T10:58:01.249Z,6.85
2023-05-02T11:00:30.369Z,10.80
2023-05-02T11:02:57.967Z,8.35
2023-05-02T11:05:26.901Z,6.93
2023-05-02T11:08:23.155Z,9.48
2023-05-02T11:10:50.461Z,8.35
2023-05-02T11:13:37.462Z,9.40
2023-05-02T11:16:04.795Z,7.78
2023-05-02T11:19:01.472Z,10.65
2023-05-02T11:21:31.278Z,11.65
2023-05-02T11:24:35.902Z,8.55
2023-05-02T11:27:30.588Z,7.97
2023-05-02T11:30:02.944Z,9.32
2023-05-02T11:32:45.738Z,8.88
2023-05-02T11:35:23.591Z,8.93
2023-05-02T11:38:13.806Z,10.50
2023-05-02T11:40:41.367Z,9.30
2023-05-02T11:43:16.796Z,9.30
2023-05-02T11:45:44.116Z,8.18
2023-05-02T11:48:13.355Z,10.65
2023-05-02T11:50:50.196Z,8.98
2023-05-02T11:53:23.460Z,11.23
2023-05-02T11:55:56.065Z,10.57
2023-05-02T11:58:25.782Z,7.70
2023-05-02T12:00:53.927Z,9.10
2023-05-02T12:03:31.406Z,10.52
2023-05-02T12:06:11.352Z,8.65
2023-05-02T12:08:39.787Z,9.93
2023-05-02T12:11:07.491Z,10.32
2023-05-02T12:13:34.929Z,9.70
2023-05-02T12:16:02.619Z,10.10
2023-05-02T12:18:29.955Z,9.65
2023-05-02T12:20:57.154Z,10.90
2023-05-02T12:23:26.953Z,8.55
2023-05-02T12:25:54.336Z,8.00
2023-05-02T12:28:23.435Z,9.00
2023-05-02T12:30:51.741Z,7.72
2023-05-02T12:33:19.106Z,9.02
2023-05-02T12:35:47.677Z,8.85
2023-05-02T12:38:17.768Z,9.52
2023-05-02T12:41:03.231Z,9.35
2023-05-02T12:43:46.502Z,7.35
2023-05-02T12:46:13.597Z,9.55
2023-05-02T12:48:40.993Z,11.73
2023-05-02T12:51:22.100Z,8.48
2023-05-02T12:53:49.172Z,8.77
2023-05-02T12:56:17.224Z,8.30
2023-05-02T12:58:48.804Z,10.73
2023-05-02T13:01:16.159Z,7.50
2023-05-02T13:03:44.882Z,10.20
2023-05-02T13:06:15.156Z,7.43
2023-05-02T13:08:42.213Z,7.75
2023-05-02T13:11:09.361Z,8.60
2023-05-02T13:13:36.432Z,8.27
2023-05-02T13:16:05.266Z,8.98
2023-05-02T13:18:32.503Z,10.88
2023-05-02T13:20:59.610Z,11.63
2023-05-02T13:23:29.057Z,11.02
2023-05-02T13:25:56.159Z,10.07
2023-05-02T13:28:23.422Z,9.30
2023-05-02T13:30:51.237Z,9.50
2023-05-02T13:33:18.561Z,12.95
2023-05-02T13:35:45.671Z,7.40
2023-05-02T13:38:12.899Z,10.82
2023-05-02T13:40:39.965Z,8.82
2023-05-02T13:43:07.022Z,14.13
2023-05-02T13:45:37.148Z,9.80
2023-05-02T13:48:05.859Z,8.52
2023-05-02T13:50:37.537Z,11.07
2023-05-02T13:53:04.618Z,11.93
2023-05-02T13:55:31.852Z,10.00
2023-05-02T13:57:58.946Z,9.30
2023-05-02T14:00:28.429Z,8.57
2023-05-02T14:02:55.987Z,8.88
2023-05-02T14:05:23.177Z,15.48
2023-05-02T14:07:51.341Z,12.02
2023-05-02T14:10:18.431Z,10.18
2023-05-02T14:12:45.577Z,12.90
2023-05-02T14:15:12.871Z,8.63
2023-05-02T14:17:39.921Z,11.90
2023-05-02T14:20:10.893Z,8.77
2023-05-02T14:22:37.980Z,8.05
2023-05-02T14:25:06.136Z,12.65
2023-05-02T14:27:33.175Z,9.20
2023-05-02T14:30:00.661Z,13.60
2023-05-02T14:32:28.291Z,11.75
2023-05-02T14:34:55.396Z,11.52
2023-05-02T14:37:22.471Z,11.32
2023-05-02T14:39:54.896Z,12.40
2023-05-02T14:42:28.220Z,10.45
2023-05-02T14:44:57.460Z,10.13
2023-05-02T14:47:28.973Z,12.65
2023-05-02T14:49:56.071Z,10.13
2023-05-02T14:52:23.300Z,10.20
2023-05-02T14:54:50.279Z,12.77
2023-05-02T14:57:17.338Z,9.73
2023-05-02T14:59:44.360Z,13.85
2023-05-02T15:02:11.724Z,12.80
2023-05-02T15:04:38.917Z,11.90
2023-05-02T15:07:06.373Z,11.57
2023-05-02T15:09:33.437Z,20.13
2023-05-02T15:12:00.473Z,12.60
2023-05-02T15:14:27.586Z,12.85
2023-05-02T15:16:55.033Z,12.05
2023-05-02T15:19:24.112Z,17.63
2023-05-02T15:21:53.414Z,12.80
2023-05-02T15:24:20.513Z,11.68
2023-05-02T15:26:47.873Z,17.35
2023-05-02T15:29:15.259Z,10.38
2023-05-02T15:31:42.538Z,16.85
2023-05-02T15:34:09.786Z,11.50
2023-05-02T15:36:40.769Z,13.07
2023-05-02T15:39:08.164Z,11.75
2023-05-02T15:41:35.360Z,10.65
2023-05-02T15:44:02.619Z,8.73
2023-05-02T15:46:29.676Z,9.32
2023-05-02T15:48:56.832Z,11.65
2023-05-02T15:51:24.045Z,10.38
2023-05-02T15:53:52.605Z,13.35
2023-05-02T15:56:21.684Z,10.77
2023-05-02T15:58:49.062Z,11.32
2023-05-02T16:01:16.413Z,8.32
2023-05-02T16:03:43.684Z,8.93
2023-05-02T16:06:11.049Z,8.45
2023-05-02T16:08:38.309Z,6.75
2023-05-02T16:11:05.411Z,9.15
2023-05-02T16:13:33.174Z,9.63
2023-05-02T16:16:00.429Z,11.98
2023-05-02T16:18:30.065Z,8.13
2023-05-02T16:20:57.576Z,6.63
2023-05-02T16:23:26.028Z,8.18
2023-05-02T16:26:00.181Z,6.28
2023-05-02T16:28:27.497Z,5.75
2023-05-02T16:30:54.767Z,7.82
2023-05-02T16:33:22.538Z,5.32
2023-05-02T16:35:49.832Z,6.38
2023-05-02T16:38:17.190Z,8.20
2023-05-02T16:40:44.293Z,8.50
2023-05-02T16:43:11.470Z,5.05
2023-05-02T16:45:38.847Z,6.63
2023-05-02T16:48:06.976Z,11.60
2023-05-02T16:50:34.077Z,3.70
2023-05-02T16:53:01.148Z,8.95
2023-05-02T16:55:29.350Z,4.93
2023-05-02T16:57:56.600Z,5.78
2023-05-02T17:00:23.887Z,9.35
2023-05-02T17:02:55.310Z,4.60
2023-05-02T17:05:23.048Z,6.38
2023-05-02T17:07:50.110Z,6.05
2023-05-02T17:10:17.259Z,5.05
2023-05-02T17:12:44.589Z,6.30
2023-05-02T17:15:11.711Z,9.10
2023-05-02T17:17:38.805Z,6.95
2023-05-02T17:20:06.566Z,7.90
2023-05-02T17:22:35.866Z,4.68
2023-05-02T17:25:02.984Z,5.97
2023-05-02T17:27:30.064Z,7.57
2023-05-02T17:29:57.158Z,7.25
2023-05-02T17:32:24.315Z,10.55
2023-05-02T17:34:51.513Z,9.40
2023-05-02T17:37:18.609Z,10.80
2023-05-02T17:39:45.994Z,7.97
2023-05-02T17:42:13.025Z,8.77
2023-05-02T17:44:40.121Z,6.00
2023-05-02T17:47:08.512Z,4.50
2023-05-02T17:49:35.730Z,5.88
2023-05-02T17:52:02.749Z,9.07
2023-05-02T17:54:29.844Z,8.52
2023-05-02T17:56:57.439Z,7.20
2023-05-02T17:59:24.495Z,5.72
2023-05-02T18:01:52.155Z,8.18
2023-05-02T18:04:19.397Z,7.55
2023-05-02T18:06:46.545Z,9.55
2023-05-02T18:09:13.620Z,8.35
2023-05-02T18:11:40.728Z,4.97
2023-05-02T18:14:07.789Z,6.53
2023-05-02T18:16:36.478Z,8.13
2023-05-02T18:19:03.801Z,9.40
2023-05-02T18:21:34.981Z,9.07
2023-05-02T18:24:02.058Z,7.80
2023-05-02T18:26:29.084Z,8.45
2023-05-02T18:28:56.133Z,7.32
2023-05-02T18:31:24.013Z,9.07
2023-05-02T18:33:54.149Z,7.68
2023-05-02T18:36:29.568Z,5.82
2023-05-02T18:38:56.727Z,11.75
2023-05-02T18:41:24.055Z,7.68
2023-05-02T18:43:51.114Z,9.93
2023-05-02T18:46:18.200Z,8.13
2023-05-02T18:48:45.323Z,9.38
2023-05-02T18:51:12.505Z,7.35
2023-05-02T18:53:39.521Z,7.95
2023-05-02T18:56:13.535Z,7.60
2023-05-02T18:58:41.446Z,9.18
2023-05-02T19:01:13.332Z,15.55
2023-05-02T19:03:41.008Z,8.82
2023-05-02T19:06:11.902Z,12.70
2023-05-02T19:08:40.540Z,10.02
2023-05-02T19:11:07.800Z,12.13
2023-05-02T19:13:36.493Z,11.13
2023-05-02T19:16:03.986Z,8.35
2023-05-02T19:18:31.144Z,9.07
2023-05-02T19:20:58.726Z,12.75
2023-05-02T19:23:25.751Z,13.65
2023-05-02T19:25:53.071Z,10.35
2023-05-02T19:28:21.928Z,13.40
2023-05-02T19:30:48.977Z,13.95
2023-05-02T19:33:16.061Z,13.10
2023-05-02T19:35:43.131Z,8.25
2023-05-02T19:38:10.156Z,11.57
2023-05-02T19:40:37.261Z,13.57
2023-05-02T19:43:04.947Z,13.05
2023-05-02T19:45:34.138Z,14.10
2023-05-02T19:48:01.281Z,11.13
2023-05-02T19:50:28.303Z,11.02
2023-05-02T19:52:59.047Z,11.82
2023-05-02T19:55:26.096Z,15.15
2023-05-02T19:57:53.096Z,13.52
2023-05-02T20:00:20.207Z,16.00
2023-05-02T20:02:49.947Z,14.68
2023-05-02T20:05:19.568Z,11.40
2023-05-02T20:07:46.761Z,15.27
2023-05-02T20:10:14.134Z,10.15
2023-05-02T20:12:44.938Z,19.60
2023-05-02T20:15:13.158Z,12.48
2023-05-02T20:17:40.446Z,15.93
2023-05-02T20:20:08.587Z,15.50
2023-05-02T20:22:35.828Z,11.88
2023-05-02T20:25:03.770Z,10.80
2023-05-02T20:27:32.168Z,12.75
2023-05-02T20:29:59.668Z,11.15
2023-05-02T20:32:27.159Z,15.60
2023-05-02T20:34:54.278Z,10.25
2023-05-02T20:37:21.441Z,12.75
2023-05-02T20:39:48.840Z,14.85
2023-05-02T20:42:23.294Z,14.00
2023-05-02T20:45:01.904Z,11.50
2023-05-02T20:47:30.403Z,13.75
2023-05-02T20:49:57.631Z,15.05
2023-05-02T20:52:24.683Z,11.05
2023-05-02T20:54:56.066Z,11.13
2023-05-02T20:57:24.388Z,14.75
2023-05-02T20:59:51.557Z,13.13
2023-05-02T21:02:18.646Z,12.88
2023-05-02T21:04:45.931Z,20.88
2023-05-02T21:07:13.023Z,13.35
2023-05-02T21:09:40.050Z,13.15
2023-05-02T21:12:07.103Z,15.43
2023-05-02T21:14:34.455Z,10.20
2023-05-02T21:17:01.646Z,12.93
2023-05-02T21:19:28.684Z,12.18
2023-05-02T21:21:55.991Z,9.80
2023-05-02T21:24:23.050Z,11.68
2023-05-02T21:26:50.088Z,13.48
2023-05-02T21:29:17.339Z,13.82
2023-05-02T21:31:45.101Z,17.67
2023-05-02T21:34:12.211Z,10.90
2023-05-02T21:36:39.272Z,14.52
2023-05-02T21:39:06.365Z,11.00
2023-05-02T21:41:35.530Z,9.38
2023-05-02T21:44:02.569Z,10.93
2023-05-02T21:46:29.658Z,14.70
2023-05-02T21:48:56.978Z,14.13
2023-05-02T21:51:23.983Z,10.90
2023-05-02T21:53:52.693Z,12.43
2023-05-02T21:56:19.728Z,9.15
2023-05-02T21:58:49.736Z,13.43
2023-05-02T22:01:17.272Z,14.48
2023-05-02T22:03:44.486Z,11.02
2023-05-02T22:06:11.517Z,11.98
2023-05-02T22:08:39.140Z,16.92
2023-05-02T22:11:09.561Z,13.15
2023-05-02T22:13:37.119Z,10.70
2023-05-02T22:16:04.533Z,10.20
2023-05-02T22:18:31.676Z,15.13
2023-05-02T22:20:58.769Z,16.67
2023-05-02T22:23:26.073Z,14.00
2023-05-02T22:25:53.134Z,13.43
2023-05-02T22:28:20.490Z,14.23
2023-05-02T22:30:47.623Z,13.10
2023-05-02T22:33:14.746Z,14.45
2023-05-02T22:35:41.858Z,13.45
2023-05-02T22:38:11.906Z,13.15
2023-05-02T22:40:38.969Z,13.10
2023-05-02T22:43:06.033Z,16.23
2023-05-02T22:45:34.019Z,13.23
2023-05-02T22:48:01.067Z,14.02
2023-05-02T22:50:28.447Z,11.27
2023-05-02T22:52:57.361Z,12.07
2023-05-02T22:55:24.912Z,14.05
2023-05-02T22:57:52.253Z,12.25
2023-05-02T23:00:19.634Z,17.58
2023-05-02T23:02:46.813Z,12.65
2023-05-02T23:05:14.348Z,12.98
2023-05-02T23:07:41.439Z,13.27
2023-05-02T23:10:09.662Z,11.85
2023-05-02T23:12:36.733Z,13.63
2023-05-02T23:15:03.967Z,8.98
2023-05-02T23:17:31.127Z,14.43
2023-05-02T23:19:58.959Z,10.68
2023-05-02T23:22:26.091Z,12.00
2023-05-02T23:24:53.168Z,11.88
2023-05-02T23:27:20.127Z,14.73
2023-05-02T23:29:49.153Z,12.45
2023-05-02T23:32:17.353Z,13.70
2023-05-02T23:34:44.692Z,13.07
2023-05-02T23:37:12.905Z,10.25
2023-05-02T23:39:40.345Z,13.20
2023-05-02T23:42:08.106Z,12.48
2023-05-02T23:44:35.211Z,13.85
2023-05-02T23:47:02.309Z,11.13
2023-05-02T23:49:29.428Z,15.93
2023-05-02T23:51:56.698Z,11.60
2023-05-02T23:54:23.832Z,13.98
2023-05-02T23:56:53.003Z,12.43
2023-05-02T23:59:20.057Z,9.93
